Antrim, New Hampshire
Current Conditions -  °F | °C
As of 9:52 PM on Friday 31 Oct 2014 (Local Time) from KAFN Reporting Station
Overcast Overcast  
Wind Chill: 41°   Ceiling: 6000
Heat Index: 41°   Visibility: 10mi
Dew Point: 35°   Wind: 0mph
Humidity: 79%   Direction: NA
Pressure: 30"   Gusts: NA
Location:  43.03°N, 71.95°W
Report Text: KAFN 010152Z AUTO 00000KT 10SM OVC060 05/02 A3000 RMK AO2 SLP171 T00500017
Loading
Personal Weather Stations






























Interactive Weather Map New forecast layout! Learn more

10-Day Weather Forecast

Advertisements
Track Severe Weather on mobile